sensor_id;sensor_type;location;lat;lon;timestamp;pressure;altitude;pressure_sealevel;temperature;humidity
71795;BME280;59641;45.188;5.712;2023-03-14T00:00:57;98438.38;;;15.09;61.09
71795;BME280;59641;45.188;5.712;2023-03-14T00:03:22;98457.81;;;15.11;62.01
71795;BME280;59641;45.188;5.712;2023-03-14T00:05:48;98460.53;;;15.17;60.71
71795;BME280;59641;45.188;5.712;2023-03-14T00:08:13;98449.19;;;15.09;61.04
71795;BME280;59641;45.188;5.712;2023-03-14T00:10:39;98443.50;;;15.11;60.86
71795;BME280;59641;45.188;5.712;2023-03-14T00:13:04;98429.19;;;15.10;61.38
71795;BME280;59641;45.188;5.712;2023-03-14T00:15:32;98430.00;;;15.11;61.95
71795;BME280;59641;45.188;5.712;2023-03-14T00:17:57;98425.94;;;15.13;61.93
71795;BME280;59641;45.188;5.712;2023-03-14T00:20:23;98428.34;;;15.15;62.87
71795;BME280;59641;45.188;5.712;2023-03-14T00:22:49;98459.47;;;15.18;62.06
71795;BME280;59641;45.188;5.712;2023-03-14T00:25:14;98456.47;;;15.19;62.09
71795;BME280;59641;45.188;5.712;2023-03-14T00:27:39;98473.22;;;15.21;62.31
71795;BME280;59641;45.188;5.712;2023-03-14T00:30:05;98471.88;;;15.24;63.26
71795;BME280;59641;45.188;5.712;2023-03-14T00:32:33;98472.16;;;15.27;63.25
71795;BME280;59641;45.188;5.712;2023-03-14T00:34:58;98461.59;;;15.31;62.97
71795;BME280;59641;45.188;5.712;2023-03-14T00:37:23;98462.13;;;15.33;62.88
71795;BME280;59641;45.188;5.712;2023-03-14T00:39:51;98468.88;;;15.36;63.48
71795;BME280;59641;45.188;5.712;2023-03-14T00:42:16;98466.72;;;15.38;62.48
71795;BME280;59641;45.188;5.712;2023-03-14T00:44:42;98465.09;;;15.37;62.63
71795;BME280;59641;45.188;5.712;2023-03-14T00:47:07;98476.72;;;15.37;62.62
71795;BME280;59641;45.188;5.712;2023-03-14T00:49:32;98477.53;;;15.38;63.02
71795;BME280;59641;45.188;5.712;2023-03-14T00:51:58;98479.94;;;15.39;63.06
71795;BME280;59641;45.188;5.712;2023-03-14T00:54:23;98478.88;;;15.40;62.86
71795;BME280;59641;45.188;5.712;2023-03-14T00:56:48;98468.88;;;15.41;62.89
71795;BME280;59641;45.188;5.712;2023-03-14T00:59:15;98473.22;;;15.42;62.91
71795;BME280;59641;45.188;5.712;2023-03-14T01:01:41;98489.13;;;15.43;63.20
71795;BME280;59641;45.188;5.712;2023-03-14T01:04:07;98515.09;;;15.44;63.42
71795;BME280;59641;45.188;5.712;2023-03-14T01:06:33;98524.81;;;15.45;63.28
71795;BME280;59641;45.188;5.712;2023-03-14T01:08:59;98529.13;;;15.46;63.47
71795;BME280;59641;45.188;5.712;2023-03-14T01:11:27;98526.16;;;15.48;63.53
71795;BME280;59641;45.188;5.712;2023-03-14T01:13:53;98508.03;;;15.48;63.37
71795;BME280;59641;45.188;5.712;2023-03-14T01:16:21;98489.94;;;15.49;63.56
71795;BME280;59641;45.188;5.712;2023-03-14T01:18:47;98459.38;;;15.48;63.50
71795;BME280;59641;45.188;5.712;2023-03-14T01:21:27;98436.94;;;15.48;63.02
71795;BME280;59641;45.188;5.712;2023-03-14T01:23:54;98431.00;;;15.46;63.33
71795;BME280;59641;45.188;5.712;2023-03-14T01:26:23;98442.13;;;15.44;63.00
71795;BME280;59641;45.188;5.712;2023-03-14T01:28:50;98454.78;;;15.44;63.16
71795;BME280;59641;45.188;5.712;2023-03-14T01:31:16;98472.13;;;15.43;63.50
71795;BME280;59641;45.188;5.712;2023-03-14T01:33:42;98482.66;;;15.44;63.84
71795;BME280;59641;45.188;5.712;2023-03-14T01:36:08;98488.06;;;15.44;63.42
71795;BME280;59641;45.188;5.712;2023-03-14T01:38:36;98492.63;;;15.44;63.65
71795;BME280;59641;45.188;5.712;2023-03-14T01:41:02;98484.81;;;15.42;63.73
71795;BME280;59641;45.188;5.712;2023-03-14T01:43:28;98476.97;;;15.41;63.56
71795;BME280;59641;45.188;5.712;2023-03-14T01:48:57;98505.66;;;15.42;63.69
71795;BME280;59641;45.188;5.712;2023-03-14T01:51:29;98512.13;;;15.41;64.08
71795;BME280;59641;45.188;5.712;2023-03-14T01:54:11;98511.06;;;15.42;63.82
71795;BME280;59641;45.188;5.712;2023-03-14T01:56:38;98514.00;;;15.40;64.29
71795;BME280;59641;45.188;5.712;2023-03-14T01:59:06;98519.16;;;15.42;63.91
71795;BME280;59641;45.188;5.712;2023-03-14T02:01:33;98519.16;;;15.42;64.14
71795;BME280;59641;45.188;5.712;2023-03-14T02:04:02;98516.47;;;15.42;63.55
71795;BME280;59641;45.188;5.712;2023-03-14T02:06:37;98516.72;;;15.40;63.39
71795;BME280;59641;45.188;5.712;2023-03-14T02:09:05;98501.84;;;15.38;63.59
71795;BME280;59641;45.188;5.712;2023-03-14T02:11:30;98487.53;;;15.37;63.85
71795;BME280;59641;45.188;5.712;2023-03-14T02:13:58;98459.69;;;15.37;63.45
71795;BME280;59641;45.188;5.712;2023-03-14T02:16:24;98457.25;;;15.35;63.69
71795;BME280;59641;45.188;5.712;2023-03-14T02:18:49;98452.91;;;15.34;63.62
71795;BME280;59641;45.188;5.712;2023-03-14T02:24:29;98451.31;;;15.33;63.38
71795;BME280;59641;45.188;5.712;2023-03-14T02:27:11;98436.47;;;15.30;63.04
71795;BME280;59641;45.188;5.712;2023-03-14T02:29:41;98421.59;;;15.28;63.33
71795;BME280;59641;45.188;5.712;2023-03-14T02:32:10;98410.81;;;15.23;63.08
71795;BME280;59641;45.188;5.712;2023-03-14T02:34:36;98409.16;;;15.22;63.42
71795;BME280;59641;45.188;5.712;2023-03-14T02:37:02;98407.56;;;15.21;64.04
71795;BME280;59641;45.188;5.712;2023-03-14T02:39:43;98418.06;;;15.22;64.05
71795;BME280;59641;45.188;5.712;2023-03-14T02:42:14;98397.81;;;15.20;63.51
71795;BME280;59641;45.188;5.712;2023-03-14T02:47:36;98394.03;;;15.21;64.21
71795;BME280;59641;45.188;5.712;2023-03-14T02:50:06;98386.75;;;15.21;63.65
71795;BME280;59641;45.188;5.712;2023-03-14T02:52:33;98383.25;;;15.21;63.52
71795;BME280;59641;45.188;5.712;2023-03-14T02:54:58;98374.31;;;15.20;63.67
71795;BME280;59641;45.188;5.712;2023-03-14T02:57:24;98375.41;;;15.19;64.00
71795;BME280;59641;45.188;5.712;2023-03-14T02:59:49;98371.88;;;15.19;64.01
71795;BME280;59641;45.188;5.712;2023-03-14T03:02:15;98373.50;;;15.20;64.22
71795;BME280;59641;45.188;5.712;2023-03-14T03:04:40;98367.28;;;15.19;63.83
71795;BME280;59641;45.188;5.712;2023-03-14T03:07:06;98368.38;;;15.18;63.80
71795;BME280;59641;45.188;5.712;2023-03-14T03:09:31;98367.28;;;15.19;63.96
71795;BME280;59641;45.188;5.712;2023-03-14T03:11:57;98362.97;;;15.18;64.01
71795;BME280;59641;45.188;5.712;2023-03-14T03:14:22;98361.88;;;15.19;64.18
71795;BME280;59641;45.188;5.712;2023-03-14T03:16:48;98371.88;;;15.19;64.19
71795;BME280;59641;45.188;5.712;2023-03-14T03:19:13;98361.09;;;15.19;64.01
71795;BME280;59641;45.188;5.712;2023-03-14T03:21:39;98349.72;;;15.17;64.12
71795;BME280;59641;45.188;5.712;2023-03-14T03:24:08;98348.13;;;15.16;63.67
71795;BME280;59641;45.188;5.712;2023-03-14T03:26:36;98351.09;;;15.14;63.53
71795;BME280;59641;45.188;5.712;2023-03-14T03:29:02;98348.94;;;15.11;63.52
71795;BME280;59641;45.188;5.712;2023-03-14T03:31:28;98351.91;;;15.09;63.52
71795;BME280;59641;45.188;5.712;2023-03-14T03:33:53;98352.47;;;15.06;63.42
71795;BME280;59641;45.188;5.712;2023-03-14T03:36:23;98341.91;;;15.05;63.13
71795;BME280;59641;45.188;5.712;2023-03-14T03:38:48;98341.38;;;15.03;63.58
71795;BME280;59641;45.188;5.712;2023-03-14T03:41:14;98347.09;;;15.01;63.77
71795;BME280;59641;45.188;5.712;2023-03-14T03:43:39;98338.69;;;15.03;63.79
71795;BME280;59641;45.188;5.712;2023-03-14T03:46:05;98331.94;;;15.00;63.33
71795;BME280;59641;45.188;5.712;2023-03-14T03:48:31;98332.75;;;15.01;63.36
71795;BME280;59641;45.188;5.712;2023-03-14T03:50:57;98326.81;;;14.99;63.69
71795;BME280;59641;45.188;5.712;2023-03-14T03:53:22;98327.63;;;14.99;63.69
71795;BME280;59641;45.188;5.712;2023-03-14T03:55:47;98329.22;;;15.00;63.62
71795;BME280;59641;45.188;5.712;2023-03-14T03:58:13;98325.72;;;15.00;63.46
71795;BME280;59641;45.188;5.712;2023-03-14T04:00:38;98322.50;;;14.98;63.59
71795;BME280;59641;45.188;5.712;2023-03-14T04:03:04;98320.88;;;14.97;63.18
71795;BME280;59641;45.188;5.712;2023-03-14T04:05:30;98315.75;;;14.95;63.76
71795;BME280;59641;45.188;5.712;2023-03-14T04:07:55;98313.84;;;14.96;63.88
71795;BME280;59641;45.188;5.712;2023-03-14T04:10:21;98308.19;;;14.97;63.73
71795;BME280;59641;45.188;5.712;2023-03-14T04:12:46;98303.88;;;14.96;63.43
71795;BME280;59641;45.188;5.712;2023-03-14T04:15:12;98310.34;;;14.95;63.51
71795;BME280;59641;45.188;5.712;2023-03-14T04:17:37;98319.53;;;14.94;63.42
71795;BME280;59641;45.188;5.712;2023-03-14T04:20:03;98317.66;;;14.95;63.17
71795;BME280;59641;45.188;5.712;2023-03-14T04:22:29;98301.69;;;14.93;63.55
71795;BME280;59641;45.188;5.712;2023-03-14T04:24:54;98287.66;;;14.91;63.32
71795;BME280;59641;45.188;5.712;2023-03-14T04:27:19;98288.50;;;14.91;62.90
71795;BME280;59641;45.188;5.712;2023-03-14T04:29:45;98286.84;;;14.90;63.14
71795;BME280;59641;45.188;5.712;2023-03-14T04:32:10;98281.75;;;14.89;63.12
71795;BME280;59641;45.188;5.712;2023-03-14T04:34:36;98273.09;;;14.87;63.57
71795;BME280;59641;45.188;5.712;2023-03-14T04:37:01;98273.91;;;14.87;63.51
71795;BME280;59641;45.188;5.712;2023-03-14T04:39:26;98269.31;;;14.88;63.45
71795;BME280;59641;45.188;5.712;2023-03-14T04:41:52;98270.09;;;14.88;63.62
71795;BME280;59641;45.188;5.712;2023-03-14T04:44:17;98262.00;;;14.88;62.90
71795;BME280;59641;45.188;5.712;2023-03-14T04:46:43;98262.00;;;14.88;62.72
71795;BME280;59641;45.188;5.712;2023-03-14T04:49:08;98250.41;;;14.88;63.11
71795;BME280;59641;45.188;5.712;2023-03-14T04:51:34;98251.50;;;14.87;62.38
71795;BME280;59641;45.188;5.712;2023-03-14T04:53:59;98253.66;;;14.85;62.63
71795;BME280;59641;45.188;5.712;2023-03-14T04:56:25;98242.31;;;14.83;62.83
71795;BME280;59641;45.188;5.712;2023-03-14T04:58:50;98230.72;;;14.82;62.43
71795;BME280;59641;45.188;5.712;2023-03-14T05:01:16;98240.19;;;14.80;62.98
71795;BME280;59641;45.188;5.712;2023-03-14T05:03:42;98238.00;;;14.77;62.74
71795;BME280;59641;45.188;5.712;2023-03-14T05:06:08;98231.00;;;14.76;63.02
71795;BME280;59641;45.188;5.712;2023-03-14T05:08:33;98226.94;;;14.73;62.39
71795;BME280;59641;45.188;5.712;2023-03-14T05:10:58;98225.06;;;14.68;62.50
71795;BME280;59641;45.188;5.712;2023-03-14T05:13:24;98227.78;;;14.68;62.56
71795;BME280;59641;45.188;5.712;2023-03-14T05:15:50;98224.53;;;14.66;62.64
71795;BME280;59641;45.188;5.712;2023-03-14T05:18:16;98224.81;;;14.65;62.40
71795;BME280;59641;45.188;5.712;2023-03-14T05:20:41;98227.00;;;14.63;62.49
71795;BME280;59641;45.188;5.712;2023-03-14T05:23:08;98225.66;;;14.60;62.29
71795;BME280;59641;45.188;5.712;2023-03-14T05:25:34;98223.47;;;14.57;62.43
71795;BME280;59641;45.188;5.712;2023-03-14T05:27:59;98232.66;;;14.56;62.37
71795;BME280;59641;45.188;5.712;2023-03-14T05:30:24;98236.47;;;14.55;62.60
71795;BME280;59641;45.188;5.712;2023-03-14T05:32:50;98232.13;;;14.54;62.93
71795;BME280;59641;45.188;5.712;2023-03-14T05:35:15;98225.66;;;14.55;62.62
71795;BME280;59641;45.188;5.712;2023-03-14T05:37:41;98221.06;;;14.56;62.83
71795;BME280;59641;45.188;5.712;2023-03-14T05:40:07;98214.88;;;14.55;62.68
71795;BME280;59641;45.188;5.712;2023-03-14T05:42:33;98222.13;;;14.55;62.48
71795;BME280;59641;45.188;5.712;2023-03-14T05:44:59;98229.44;;;14.54;62.80
71795;BME280;59641;45.188;5.712;2023-03-14T05:47:25;98232.13;;;14.54;62.16
71795;BME280;59641;45.188;5.712;2023-03-14T05:49:50;98237.78;;;14.47;62.42
71795;BME280;59641;45.188;5.712;2023-03-14T05:52:15;98242.13;;;14.43;62.74
71795;BME280;59641;45.188;5.712;2023-03-14T05:54:41;98242.13;;;14.43;63.08
71795;BME280;59641;45.188;5.712;2023-03-14T05:57:06;98242.38;;;14.42;63.24
71795;BME280;59641;45.188;5.712;2023-03-14T05:59:32;98242.91;;;14.44;63.31
71795;BME280;59641;45.188;5.712;2023-03-14T06:01:57;98237.78;;;14.42;62.91
71795;BME280;59641;45.188;5.712;2023-03-14T06:04:22;98239.41;;;14.43;63.41
71795;BME280;59641;45.188;5.712;2023-03-14T06:06:48;98238.59;;;14.43;63.52
71795;BME280;59641;45.188;5.712;2023-03-14T06:09:13;98242.91;;;14.44;63.07
71795;BME280;59641;45.188;5.712;2023-03-14T06:11:38;98238.59;;;14.43;62.85
71795;BME280;59641;45.188;5.712;2023-03-14T06:14:04;98243.19;;;14.42;63.28
71795;BME280;59641;45.188;5.712;2023-03-14T06:16:30;98251.56;;;14.41;63.20
71795;BME280;59641;45.188;5.712;2023-03-14T06:18:57;98244.28;;;14.41;63.28
71795;BME280;59641;45.188;5.712;2023-03-14T06:21:22;98249.94;;;14.40;63.41
71795;BME280;59641;45.188;5.712;2023-03-14T06:23:47;98259.13;;;14.39;63.72
71795;BME280;59641;45.188;5.712;2023-03-14T06:26:13;98253.44;;;14.35;63.53
71795;BME280;59641;45.188;5.712;2023-03-14T06:28:38;98258.84;;;14.35;63.61
71795;BME280;59641;45.188;5.712;2023-03-14T06:31:04;98255.34;;;14.35;63.68
71795;BME280;59641;45.188;5.712;2023-03-14T06:33:30;98264.25;;;14.35;63.54
71795;BME280;59641;45.188;5.712;2023-03-14T06:35:55;98257.22;;;14.34;63.94
71795;BME280;59641;45.188;5.712;2023-03-14T06:38:21;98257.22;;;14.34;63.25
71795;BME280;59641;45.188;5.712;2023-03-14T06:40:46;98260.19;;;14.33;63.50
71795;BME280;59641;45.188;5.712;2023-03-14T06:43:11;98265.88;;;14.31;63.57
71795;BME280;59641;45.188;5.712;2023-03-14T06:45:37;98259.94;;;14.29;63.14
71795;BME280;59641;45.188;5.712;2023-03-14T06:48:03;98260.19;;;14.27;63.49
71795;BME280;59641;45.188;5.712;2023-03-14T06:50:28;98269.09;;;14.28;63.09
71795;BME280;59641;45.188;5.712;2023-03-14T06:52:53;98265.06;;;14.25;63.18
71795;BME280;59641;45.188;5.712;2023-03-14T06:55:19;98264.78;;;14.27;63.46
71795;BME280;59641;45.188;5.712;2023-03-14T06:57:44;98259.66;;;14.25;63.31
71795;BME280;59641;45.188;5.712;2023-03-14T07:00:11;98269.91;;;14.23;62.83
71795;BME280;59641;45.188;5.712;2023-03-14T07:02:37;98278.81;;;14.19;63.03
71795;BME280;59641;45.188;5.712;2023-03-14T07:05:03;98286.09;;;14.18;63.41
71795;BME280;59641;45.188;5.712;2023-03-14T07:07:30;98290.94;;;14.16;63.38
71795;BME280;59641;45.188;5.712;2023-03-14T07:09:55;98287.75;;;14.14;63.16
71795;BME280;59641;45.188;5.712;2023-03-14T07:12:21;98291.50;;;14.13;63.34
71795;BME280;59641;45.188;5.712;2023-03-14T07:14:46;98292.59;;;14.12;63.23
71795;BME280;59641;45.188;5.712;2023-03-14T07:17:11;98291.75;;;14.12;63.34
71795;BME280;59641;45.188;5.712;2023-03-14T07:19:37;98290.94;;;14.11;63.20
71795;BME280;59641;45.188;5.712;2023-03-14T07:22:04;98298.25;;;14.11;63.38
71795;BME280;59641;45.188;5.712;2023-03-14T07:24:29;98311.72;;;14.11;63.27
71795;BME280;59641;45.188;5.712;2023-03-14T07:26:54;98313.34;;;14.12;63.22
71795;BME280;59641;45.188;5.712;2023-03-14T07:29:20;98318.72;;;14.12;63.41
71795;BME280;59641;45.188;5.712;2023-03-14T07:31:45;98327.66;;;14.12;63.70
71795;BME280;59641;45.188;5.712;2023-03-14T07:34:13;98324.13;;;14.12;63.72
71795;BME280;59641;45.188;5.712;2023-03-14T07:36:38;98330.34;;;14.12;64.27
71795;BME280;59641;45.188;5.712;2023-03-14T07:39:04;98328.47;;;14.13;64.36
71795;BME280;59641;45.188;5.712;2023-03-14T07:41:30;98329.25;;;14.13;63.21
71795;BME280;59641;45.188;5.712;2023-03-14T07:43:56;98334.13;;;14.11;63.57
71795;BME280;59641;45.188;5.712;2023-03-14T07:46:21;98344.34;;;14.09;63.93
71795;BME280;59641;45.188;5.712;2023-03-14T07:48:47;98344.91;;;14.11;63.94
71795;BME280;59641;45.188;5.712;2023-03-14T07:51:12;98349.75;;;14.09;63.89
71795;BME280;59641;45.188;5.712;2023-03-14T07:53:37;98354.34;;;14.09;64.33
71795;BME280;59641;45.188;5.712;2023-03-14T07:56:05;98362.19;;;14.10;64.41
71795;BME280;59641;45.188;5.712;2023-03-14T07:58:30;98361.38;;;14.10;64.17
71795;BME280;59641;45.188;5.712;2023-03-14T08:00:58;98369.19;;;14.11;63.94
71795;BME280;59641;45.188;5.712;2023-03-14T08:03:24;98361.38;;;14.10;63.72
71795;BME280;59641;45.188;5.712;2023-03-14T08:05:50;98363.25;;;14.09;63.93
71795;BME280;59641;45.188;5.712;2023-03-14T08:08:16;98368.91;;;14.07;64.03
71795;BME280;59641;45.188;5.712;2023-03-14T08:10:42;98378.91;;;14.07;64.18
71795;BME280;59641;45.188;5.712;2023-03-14T08:13:08;98385.09;;;14.07;64.39
71795;BME280;59641;45.188;5.712;2023-03-14T08:15:34;98391.31;;;14.08;64.85
71795;BME280;59641;45.188;5.712;2023-03-14T08:17:59;98400.19;;;14.09;64.79
71795;BME280;59641;45.188;5.712;2023-03-14T08:20:28;98404.53;;;14.10;64.90
71795;BME280;59641;45.188;5.712;2023-03-14T08:23:00;98403.44;;;14.05;64.98
71795;BME280;59641;45.188;5.712;2023-03-14T08:25:27;98405.34;;;14.10;64.84
71795;BME280;59641;45.188;5.712;2023-03-14T08:27:53;98413.44;;;14.10;65.09
71795;BME280;59641;45.188;5.712;2023-03-14T08:30:20;98417.75;;;14.11;65.30
71795;BME280;59641;45.188;5.712;2023-03-14T08:32:45;98414.25;;;14.11;65.14
71795;BME280;59641;45.188;5.712;2023-03-14T08:35:11;98418.84;;;14.10;64.86
71795;BME280;59641;45.188;5.712;2023-03-14T08:37:37;98434.22;;;14.10;64.87
71795;BME280;59641;45.188;5.712;2023-03-14T08:40:04;98442.31;;;14.10;65.09
71795;BME280;59641;45.188;5.712;2023-03-14T08:42:34;98436.06;;;14.09;65.06
71795;BME280;59641;45.188;5.712;2023-03-14T08:44:59;98442.31;;;14.10;65.00
71795;BME280;59641;45.188;5.712;2023-03-14T08:47:25;98439.31;;;14.06;64.94
71795;BME280;59641;45.188;5.712;2023-03-14T08:49:50;98443.09;;;14.05;65.66
71795;BME280;59641;45.188;5.712;2023-03-14T08:52:15;98446.59;;;14.05;65.86
71795;BME280;59641;45.188;5.712;2023-03-14T08:54:43;98457.13;;;14.07;65.75
71795;BME280;59641;45.188;5.712;2023-03-14T08:57:09;98459.56;;;14.09;65.44
71795;BME280;59641;45.188;5.712;2023-03-14T08:59:34;98466.03;;;14.07;65.54
71795;BME280;59641;45.188;5.712;2023-03-14T09:01:59;98478.44;;;14.09;65.83
71795;BME280;59641;45.188;5.712;2023-03-14T09:04:29;98474.69;;;14.10;65.27
71795;BME280;59641;45.188;5.712;2023-03-14T09:06:54;98481.13;;;14.09;65.36
71795;BME280;59641;45.188;5.712;2023-03-14T09:09:19;98496.50;;;14.08;65.55
71795;BME280;59641;45.188;5.712;2023-03-14T09:11:45;98492.19;;;14.07;65.27
71795;BME280;59641;45.188;5.712;2023-03-14T09:14:10;98499.47;;;14.06;65.39
71795;BME280;59641;45.188;5.712;2023-03-14T09:16:35;98503.78;;;14.07;65.45
71795;BME280;59641;45.188;5.712;2023-03-14T09:19:01;98509.19;;;14.07;65.52
71795;BME280;59641;45.188;5.712;2023-03-14T09:21:27;98506.50;;;14.07;65.58
71795;BME280;59641;45.188;5.712;2023-03-14T09:23:52;98524.28;;;14.09;65.05
71795;BME280;59641;45.188;5.712;2023-03-14T09:26:18;98535.63;;;14.05;65.09
71795;BME280;59641;45.188;5.712;2023-03-14T09:28:43;98539.38;;;14.04;65.16
71795;BME280;59641;45.188;5.712;2023-03-14T09:31:10;98559.34;;;14.03;65.21
71795;BME280;59641;45.188;5.712;2023-03-14T09:33:37;98563.94;;;14.03;65.76
71795;BME280;59641;45.188;5.712;2023-03-14T09:36:03;98578.78;;;14.05;65.33
71795;BME280;59641;45.188;5.712;2023-03-14T09:38:29;98594.97;;;14.05;65.37
71795;BME280;59641;45.188;5.712;2023-03-14T09:40:55;98594.41;;;14.03;65.02
71795;BME280;59641;45.188;5.712;2023-03-14T09:43:24;98601.13;;;14.01;65.22
71795;BME280;59641;45.188;5.712;2023-03-14T09:45:51;98605.41;;;13.97;64.99
71795;BME280;59641;45.188;5.712;2023-03-14T09:48:20;98608.41;;;13.95;65.41
71795;BME280;59641;45.188;5.712;2023-03-14T09:50:50;98615.66;;;13.95;65.06
71795;BME280;59641;45.188;5.712;2023-03-14T09:53:25;98622.38;;;13.92;65.52
71795;BME280;59641;45.188;5.712;2023-03-14T09:55:53;98627.22;;;13.90;65.60
71795;BME280;59641;45.188;5.712;2023-03-14T09:58:21;98635.03;;;13.87;65.62
71795;BME280;59641;45.188;5.712;2023-03-14T10:00:49;98645.25;;;13.84;66.00
71795;BME280;59641;45.188;5.712;2023-03-14T10:03:26;98647.38;;;13.82;65.79
71795;BME280;59641;45.188;5.712;2023-03-14T10:05:52;98661.72;;;13.83;66.07
71795;BME280;59641;45.188;5.712;2023-03-14T10:08:18;98661.16;;;13.81;66.08
71795;BME280;59641;45.188;5.712;2023-03-14T10:10:44;98660.88;;;13.82;66.11
71795;BME280;59641;45.188;5.712;2023-03-14T10:15:35;98664.13;;;13.84;66.50
71795;BME280;59641;45.188;5.712;2023-03-14T10:18:04;98671.97;;;13.86;66.14
71795;BME280;59641;45.188;5.712;2023-03-14T10:20:38;98677.09;;;13.88;66.04
71795;BME280;59641;45.188;5.712;2023-03-14T10:23:06;98684.13;;;13.89;66.16
71795;BME280;59641;45.188;5.712;2023-03-14T10:25:45;98694.63;;;13.90;66.23
71795;BME280;59641;45.188;5.712;2023-03-14T10:28:38;98699.78;;;13.92;65.72
71795;BME280;59641;45.188;5.712;2023-03-14T10:31:03;98703.81;;;13.89;65.80
71795;BME280;59641;45.188;5.712;2023-03-14T10:33:34;98712.97;;;13.88;66.17
71795;BME280;59641;45.188;5.712;2023-03-14T10:36:03;98723.78;;;13.88;65.93
71795;BME280;59641;45.188;5.712;2023-03-14T10:38:31;98731.03;;;13.88;65.78
71795;BME280;59641;45.188;5.712;2023-03-14T10:40:58;98741.00;;;13.87;65.84
71795;BME280;59641;45.188;5.712;2023-03-14T10:43:33;98743.69;;;13.87;66.13
71795;BME280;59641;45.188;5.712;2023-03-14T10:46:10;98745.34;;;13.88;65.66
71795;BME280;59641;45.188;5.712;2023-03-14T10:48:38;98764.47;;;13.87;65.61
71795;BME280;59641;45.188;5.712;2023-03-14T10:51:10;98767.94;;;13.82;65.32
71795;BME280;59641;45.188;5.712;2023-03-14T10:56:04;98752.22;;;13.74;65.64
71795;BME280;59641;45.188;5.712;2023-03-14T10:58:34;98750.34;;;13.74;65.42
71795;BME280;59641;45.188;5.712;2023-03-14T11:06:57;98758.94;;;13.71;65.06
71795;BME280;59641;45.188;5.712;2023-03-14T11:14:41;98775.94;;;13.72;64.66
71795;BME280;59641;45.188;5.712;2023-03-14T11:19:57;98775.66;;;13.73;63.96
71795;BME280;59641;45.188;5.712;2023-03-14T11:22:41;98769.22;;;13.74;62.88
71795;BME280;59641;45.188;5.712;2023-03-14T11:25:18;98778.63;;;13.72;61.91
71795;BME280;59641;45.188;5.712;2023-03-14T11:28:00;98788.59;;;13.71;61.81
71795;BME280;59641;45.188;5.712;2023-03-14T11:30:33;98778.34;;;13.73;61.77
71795;BME280;59641;45.188;5.712;2023-03-14T11:33:33;98766.28;;;13.76;60.86
71795;BME280;59641;45.188;5.712;2023-03-14T11:36:06;98773.28;;;13.77;60.63
71795;BME280;59641;45.188;5.712;2023-03-14T11:38:52;98777.66;;;13.83;60.42
71795;BME280;59641;45.188;5.712;2023-03-14T11:41:51;98796.03;;;13.86;58.70
71795;BME280;59641;45.188;5.712;2023-03-14T11:44:27;98785.81;;;13.88;59.36
71795;BME280;59641;45.188;5.712;2023-03-14T11:47:09;98791.47;;;13.92;59.10
71795;BME280;59641;45.188;5.712;2023-03-14T11:49:40;98780.25;;;14.00;58.58
71795;BME280;59641;45.188;5.712;2023-03-14T11:52:21;98780.00;;;14.06;58.84
71795;BME280;59641;45.188;5.712;2023-03-14T11:54:56;98776.81;;;14.10;59.32
71795;BME280;59641;45.188;5.712;2023-03-14T11:57:23;98784.94;;;14.15;57.82
71795;BME280;59641;45.188;5.712;2023-03-14T12:10:50;98781.34;;;14.36;57.15
71795;BME280;59641;45.188;5.712;2023-03-14T12:13:18;98780.56;;;14.41;57.27
71795;BME280;59641;45.188;5.712;2023-03-14T12:15:50;98792.22;;;14.46;56.41
71795;BME280;59641;45.188;5.712;2023-03-14T12:18:20;98777.94;;;14.51;56.04
71795;BME280;59641;45.188;5.712;2023-03-14T12:21:12;98786.84;;;14.52;54.89
71795;BME280;59641;45.188;5.712;2023-03-14T12:23:50;98805.16;;;14.44;53.83
71795;BME280;59641;45.188;5.712;2023-03-14T12:26:22;98797.25;;;14.38;54.50
71795;BME280;59641;45.188;5.712;2023-03-14T12:29:04;98799.69;;;14.34;54.33
71795;BME280;59641;45.188;5.712;2023-03-14T12:31:35;98792.09;;;14.31;54.46
71795;BME280;59641;45.188;5.712;2023-03-14T12:37:34;98782.13;;;14.32;54.31
71795;BME280;59641;45.188;5.712;2023-03-14T12:42:38;98785.63;;;14.32;54.45
71795;BME280;59641;45.188;5.712;2023-03-14T12:50:24;98782.72;;;14.39;53.18
71795;BME280;59641;45.188;5.712;2023-03-14T13:01:04;98777.66;;;14.53;52.45
71795;BME280;59641;45.188;5.712;2023-03-14T13:03:57;98772.06;;;14.59;51.15
71795;BME280;59641;45.188;5.712;2023-03-14T13:06:50;98769.94;;;14.61;52.54
71795;BME280;59641;45.188;5.712;2023-03-14T13:11:54;98754.31;;;14.68;51.55
71795;BME280;59641;45.188;5.712;2023-03-14T13:14:19;98745.38;;;14.63;51.98
71795;BME280;59641;45.188;5.712;2023-03-14T13:16:46;98744.81;;;14.61;52.07
71795;BME280;59641;45.188;5.712;2023-03-14T13:19:25;98754.81;;;14.60;52.32
71795;BME280;59641;45.188;5.712;2023-03-14T13:22:04;98753.72;;;14.61;52.82
71795;BME280;59641;45.188;5.712;2023-03-14T13:24:33;98756.44;;;14.61;52.44
71795;BME280;59641;45.188;5.712;2023-03-14T13:27:00;98759.09;;;14.56;52.29
71795;BME280;59641;45.188;5.712;2023-03-14T13:29:28;98765.78;;;14.48;52.72
71795;BME280;59641;45.188;5.712;2023-03-14T13:31:56;98776.81;;;14.47;52.83
71795;BME280;59641;45.188;5.712;2023-03-14T13:34:33;98782.16;;;14.37;53.02
71795;BME280;59641;45.188;5.712;2023-03-14T13:37:00;98788.88;;;14.34;53.43
71795;BME280;59641;45.188;5.712;2023-03-14T13:39:27;98783.16;;;14.31;53.74
71795;BME280;59641;45.188;5.712;2023-03-14T13:41:58;98786.41;;;14.27;54.33
71795;BME280;59641;45.188;5.712;2023-03-14T13:44:30;98781.81;;;14.28;54.54
71795;BME280;59641;45.188;5.712;2023-03-14T13:47:01;98777.78;;;14.31;54.64
71795;BME280;59641;45.188;5.712;2023-03-14T13:49:28;98788.56;;;14.31;54.19
71795;BME280;59641;45.188;5.712;2023-03-14T13:51:56;98806.41;;;14.32;54.26
71795;BME280;59641;45.188;5.712;2023-03-14T13:54:22;98803.16;;;14.30;54.07
71795;BME280;59641;45.188;5.712;2023-03-14T13:56:48;98801.22;;;14.25;53.84
71795;BME280;59641;45.188;5.712;2023-03-14T13:59:32;98807.13;;;14.22;53.59
71795;BME280;59641;45.188;5.712;2023-03-14T14:02:04;98797.69;;;14.19;53.42
71795;BME280;59641;45.188;5.712;2023-03-14T14:04:33;98809.28;;;14.20;53.58